Time;durP1;ratioP1;P1;durP2;ratioP2;P2;SDS_P1;SDS_P2;PMS_P1;PMS_P2;Temp;Humidity;BMP_temperature;BMP_pressure;BME280_temperature;BME280_humidity;BME280_pressure;Samples;Min_cycle;Max_cycle;Signal;HPM_P1;HPM_P2
2024/04/05 00:01:45;;;;;;;;;;;20.50;50.20;;;;;;1574322;74;1536;-67
2024/04/05 00:03:47;;;;;;;;;;;20.50;50.20;;;;;;1571903;73;1922;-69
2024/04/05 00:05:49;;;;;;;;;;;20.50;50.20;;;;;;1576331;74;1582;-69
2024/04/05 00:07:50;;;;;;;;;;;20.50;50.20;;;;;;1569902;74;1537;-68
2024/04/05 00:09:52;;;;;;;;;;;20.50;50.20;;;;;;1570710;74;1626;-70
2024/04/05 00:11:54;;;;;;;;;;;20.50;50.20;;;;;;1574176;74;1630;-71
2024/04/05 00:13:56;;;;;;;;;;;21.00;50.50;;;;;;1573489;74;1531;-69
2024/04/05 00:16:00;;;;;;;;;;;20.50;50.20;;;;;;1576855;73;1531;-69
2024/04/05 00:18:02;;;;;;;;;;;20.40;50.20;;;;;;1571644;73;2128;-71
2024/04/05 00:20:04;;;;;;;;;;;20.70;50.40;;;;;;1572150;73;1594;-68
2024/04/05 00:22:06;;;;;;;;;;;20.50;50.30;;;;;;1573474;74;1923;-70
2024/04/05 00:24:08;;;;;;;;;;;20.40;50.20;;;;;;1570804;74;1500;-70
2024/04/05 00:26:10;;;;;;;;;;;20.40;50.30;;;;;;1571427;74;1477;-69
2024/04/05 00:28:12;;;;;;;;;;;20.50;50.40;;;;;;1572475;74;1525;-68
2024/04/05 00:30:14;;;;;;;;;;;20.50;50.40;;;;;;1570129;74;1381;-70
2024/04/05 00:32:16;;;;;;;;;;;20.50;50.30;;;;;;1572333;74;655;-70
2024/04/05 00:34:18;;;;;;;;;;;20.50;50.40;;;;;;1571885;74;1588;-69
2024/04/05 00:36:20;;;;;;;;;;;20.40;50.30;;;;;;1574529;74;1670;-71
2024/04/05 00:38:25;;;;;;;;;;;20.50;50.40;;;;;;1569571;75;1529;-71
2024/04/05 00:40:27;;;;;;;;;;;20.50;50.50;;;;;;1570872;75;1558;-68
2024/04/05 00:42:29;;;;;;;;;;;20.40;50.40;;;;;;1569697;74;1942;-69
2024/04/05 00:44:31;;;;;;;;;;;20.50;50.40;;;;;;1574146;74;1463;-70
2024/04/05 00:46:34;;;;;;;;;;;20.50;50.50;;;;;;1571451;74;1316;-69
2024/04/05 00:48:36;;;;;;;;;;;20.40;50.30;;;;;;1567331;74;1514;-70
2024/04/05 00:50:39;;;;;;;;;;;20.40;50.40;;;;;;1572758;74;1375;-69
2024/04/05 00:52:41;;;;;;;;;;;20.50;50.50;;;;;;1570816;75;1553;-68
2024/04/05 00:54:43;;;;;;;;;;;20.40;50.40;;;;;;1571792;74;1566;-67
2024/04/05 00:56:44;;;;;;;;;;;20.50;50.50;;;;;;1568766;74;1330;-67
2024/04/05 00:58:46;;;;;;;;;;;20.40;50.40;;;;;;1572936;75;1586;-67
2024/04/05 01:00:48;;;;;;;;;;;20.50;50.50;;;;;;1570282;75;1568;-67
2024/04/05 01:02:50;;;;;;;;;;;20.50;50.50;;;;;;1571555;75;1933;-69
2024/04/05 01:04:52;;;;;;;;;;;20.80;50.70;;;;;;1569977;74;1394;-68
2024/04/05 01:06:54;;;;;;;;;;;20.50;50.50;;;;;;1571099;74;1608;-71
2024/04/05 01:08:56;;;;;;;;;;;20.40;50.50;;;;;;1574201;74;1599;-69
2024/04/05 01:10:58;;;;;;;;;;;20.50;50.60;;;;;;1564561;74;1322;-68
2024/04/05 01:13:03;;;;;;;;;;;20.50;50.60;;;;;;1573080;73;1460;-71
2024/04/05 01:15:06;;;;;;;;;;;20.40;50.50;;;;;;1572259;75;1495;-70
2024/04/05 01:17:07;;;;;;;;;;;20.50;50.70;;;;;;1572511;74;1667;-69
2024/04/05 01:19:09;;;;;;;;;;;20.40;50.50;;;;;;1573287;74;1333;-68
2024/04/05 01:21:11;;;;;;;;;;;20.40;50.60;;;;;;1570534;74;1561;-70
2024/04/05 01:23:13;;;;;;;;;;;20.50;50.70;;;;;;1572749;74;1950;-68
2024/04/05 01:25:15;;;;;;;;;;;20.40;50.60;;;;;;1572289;74;1671;-69
2024/04/05 01:27:17;;;;;;;;;;;20.40;50.70;;;;;;1573547;74;1584;-69
2024/04/05 01:29:19;;;;;;;;;;;20.40;50.60;;;;;;1577054;74;1490;-69
2024/04/05 01:31:21;;;;;;;;;;;20.40;50.70;;;;;;1567486;74;1544;-70
2024/04/05 01:33:23;;;;;;;;;;;20.50;50.70;;;;;;1571670;74;1493;-69
2024/04/05 01:35:26;;;;;;;;;;;20.50;50.70;;;;;;1571060;74;1543;-71
2024/04/05 01:37:28;;;;;;;;;;;20.40;50.70;;;;;;1571442;74;1163;-70
2024/04/05 01:39:30;;;;;;;;;;;20.40;50.70;;;;;;1570030;74;1598;-70
2024/04/05 01:41:33;;;;;;;;;;;20.40;50.70;;;;;;1569874;74;1477;-68
2024/04/05 01:43:35;;;;;;;;;;;20.40;50.70;;;;;;1571313;75;1915;-69
2024/04/05 01:45:37;;;;;;;;;;;20.60;50.80;;;;;;1567644;74;1361;-71
2024/04/05 01:47:39;;;;;;;;;;;20.50;50.80;;;;;;1570208;75;1380;-69
2024/04/05 01:49:41;;;;;;;;;;;20.50;50.70;;;;;;1572765;74;1542;-68
2024/04/05 01:51:42;;;;;;;;;;;20.50;50.80;;;;;;1571987;74;579;-66
2024/04/05 01:53:44;;;;;;;;;;;20.50;50.80;;;;;;1561519;75;1653;-67
2024/04/05 01:55:46;;;;;;;;;;;20.50;50.80;;;;;;1574795;74;1579;-68
2024/04/05 01:57:48;;;;;;;;;;;20.50;50.80;;;;;;1573275;74;1540;-70
2024/04/05 01:59:50;;;;;;;;;;;20.40;50.70;;;;;;1569592;75;1675;-72
2024/04/05 02:01:52;;;;;;;;;;;20.50;50.80;;;;;;1573808;74;749;-69
2024/04/05 02:03:54;;;;;;;;;;;20.50;50.80;;;;;;1560519;75;1911;-67
2024/04/05 02:05:56;;;;;;;;;;;20.50;50.80;;;;;;1554632;75;1550;-69
2024/04/05 02:07:58;;;;;;;;;;;20.50;50.80;;;;;;1558061;75;1569;-67
2024/04/05 02:09:59;;;;;;;;;;;20.50;50.70;;;;;;1571351;75;1490;-68
2024/04/05 02:12:01;;;;;;;;;;;20.50;50.80;;;;;;1569438;74;1491;-70
2024/04/05 02:14:03;;;;;;;;;;;20.50;50.80;;;;;;1571263;74;1456;-70
2024/04/05 02:16:05;;;;;;;;;;;20.50;50.80;;;;;;1566802;75;667;-70
2024/04/05 02:18:09;;;;;;;;;;;20.70;50.90;;;;;;1568879;74;1561;-70
2024/04/05 02:20:11;;;;;;;;;;;20.50;50.80;;;;;;1570899;73;1569;-68
2024/04/05 02:22:13;;;;;;;;;;;20.40;50.80;;;;;;1574720;74;1535;-68
2024/04/05 02:24:15;;;;;;;;;;;20.50;50.90;;;;;;1570052;74;1921;-69
2024/04/05 02:26:17;;;;;;;;;;;20.50;50.90;;;;;;1573557;74;1609;-67
2024/04/05 02:28:19;;;;;;;;;;;20.60;50.90;;;;;;1570659;75;1638;-70
2024/04/05 02:30:24;;;;;;;;;;;20.50;50.90;;;;;;1571020;74;671;-69
2024/04/05 02:32:24;;;;;;;;;;;20.50;50.90;;;;;;1570481;75;1724;-68
2024/04/05 02:34:26;;;;;;;;;;;20.50;50.90;;;;;;1569432;75;1557;-69
2024/04/05 02:36:28;;;;;;;;;;;20.50;50.90;;;;;;1569789;74;1359;-67
2024/04/05 02:38:30;;;;;;;;;;;20.50;51.00;;;;;;1571599;74;1474;-67
2024/04/05 02:40:32;;;;;;;;;;;20.50;51.00;;;;;;1570987;74;1592;-68
2024/04/05 02:42:34;;;;;;;;;;;20.50;50.90;;;;;;1572043;74;1539;-69
2024/04/05 02:44:36;;;;;;;;;;;20.50;51.00;;;;;;1570576;74;1930;-68
2024/04/05 02:46:38;;;;;;;;;;;20.50;51.00;;;;;;1571417;75;1593;-66
2024/04/05 02:48:40;;;;;;;;;;;20.50;51.00;;;;;;1571743;74;1565;-70
2024/04/05 02:50:42;;;;;;;;;;;20.50;51.00;;;;;;1571502;75;1423;-68
2024/04/05 02:52:43;;;;;;;;;;;20.50;51.00;;;;;;1575861;74;756;-71
2024/04/05 02:54:45;;;;;;;;;;;20.50;51.10;;;;;;1566927;74;1618;-68
2024/04/05 02:56:47;;;;;;;;;;;20.50;51.00;;;;;;1570873;75;1691;-67
2024/04/05 02:58:49;;;;;;;;;;;20.60;51.10;;;;;;1572423;75;1581;-69
2024/04/05 03:00:53;;;;;;;;;;;20.50;51.00;;;;;;1568414;75;1321;-69
2024/04/05 03:02:55;;;;;;;;;;;20.40;51.00;;;;;;1574864;74;1771;-69
2024/04/05 03:04:57;;;;;;;;;;;20.50;51.00;;;;;;1577593;74;1966;-70
2024/04/05 03:06:59;;;;;;;;;;;20.50;51.10;;;;;;1570386;74;1094;-69
2024/04/05 03:09:01;;;;;;;;;;;20.50;51.00;;;;;;1571076;74;1533;-71
2024/04/05 03:11:03;;;;;;;;;;;20.50;51.10;;;;;;1570349;75;1700;-72
2024/04/05 03:13:05;;;;;;;;;;;20.50;51.10;;;;;;1568800;74;1551;-71
2024/04/05 03:15:09;;;;;;;;;;;20.50;51.10;;;;;;1575299;74;1594;-70
2024/04/05 03:17:10;;;;;;;;;;;20.50;51.10;;;;;;1570106;74;1672;-70
2024/04/05 03:19:12;;;;;;;;;;;20.50;51.00;;;;;;1572241;74;1551;-68
2024/04/05 03:21:14;;;;;;;;;;;20.60;51.00;;;;;;1566347;74;1550;-68
2024/04/05 03:23:16;;;;;;;;;;;20.50;51.00;;;;;;1575051;74;1936;-68
2024/04/05 03:25:18;;;;;;;;;;;20.50;51.10;;;;;;1571376;74;1602;-69
2024/04/05 03:27:20;;;;;;;;;;;20.50;51.10;;;;;;1573404;74;1471;-70
2024/04/05 03:29:22;;;;;;;;;;;20.50;51.10;;;;;;1570383;74;1544;-71
2024/04/05 03:31:24;;;;;;;;;;;20.50;51.10;;;;;;1573130;74;1555;-69
2024/04/05 03:33:25;;;;;;;;;;;20.50;51.00;;;;;;1568963;75;1571;-70
2024/04/05 03:35:27;;;;;;;;;;;20.50;51.10;;;;;;1571566;74;1448;-70
2024/04/05 03:37:29;;;;;;;;;;;20.50;51.00;;;;;;1573192;74;1513;-69
2024/04/05 03:39:31;;;;;;;;;;;20.50;51.00;;;;;;1571424;74;1555;-71
2024/04/05 03:41:33;;;;;;;;;;;20.50;51.10;;;;;;1570162;74;1524;-69
2024/04/05 03:43:35;;;;;;;;;;;20.50;51.00;;;;;;1567437;75;1946;-68
2024/04/05 03:45:37;;;;;;;;;;;20.50;51.10;;;;;;1569447;74;1483;-70
2024/04/05 03:47:39;;;;;;;;;;;20.50;51.10;;;;;;1567360;74;1328;-71
2024/04/05 03:49:41;;;;;;;;;;;20.50;51.10;;;;;;1569777;75;1558;-68
2024/04/05 03:51:43;;;;;;;;;;;20.50;51.10;;;;;;1565109;74;1581;-70
2024/04/05 03:53:45;;;;;;;;;;;20.50;51.10;;;;;;1572262;74;1572;-70
2024/04/05 03:55:47;;;;;;;;;;;20.50;51.10;;;;;;1572790;74;1557;-69
2024/04/05 03:57:52;;;;;;;;;;;20.50;51.10;;;;;;1569470;75;1467;-70
2024/04/05 03:59:54;;;;;;;;;;;20.50;51.10;;;;;;1569008;73;1715;-72
2024/04/05 04:01:56;;;;;;;;;;;20.50;51.20;;;;;;1575918;74;1552;-69
2024/04/05 04:03:57;;;;;;;;;;;20.50;51.20;;;;;;1571405;74;1935;-70
2024/04/05 04:05:59;;;;;;;;;;;20.50;51.20;;;;;;1568754;74;1687;-67
2024/04/05 04:08:01;;;;;;;;;;;20.50;51.40;;;;;;1566671;73;1535;-70
2024/04/05 04:10:03;;;;;;;;;;;20.50;51.30;;;;;;1574420;74;1445;-73
2024/04/05 04:12:05;;;;;;;;;;;20.50;51.30;;;;;;1568425;74;697;-73
2024/04/05 04:14:07;;;;;;;;;;;20.50;51.30;;;;;;1571118;74;1600;-73
2024/04/05 04:16:09;;;;;;;;;;;20.50;51.20;;;;;;1571311;74;1340;-73
2024/04/05 04:18:11;;;;;;;;;;;20.60;51.30;;;;;;1570535;74;1470;-72
2024/04/05 04:20:13;;;;;;;;;;;20.50;51.20;;;;;;1563160;74;1582;-71
2024/04/05 04:22:16;;;;;;;;;;;20.50;51.20;;;;;;1570979;74;2068;-71
2024/04/05 04:24:19;;;;;;;;;;;20.50;51.10;;;;;;1572672;74;1916;-69
2024/04/05 04:26:21;;;;;;;;;;;20.60;51.10;;;;;;1571020;74;721;-72
2024/04/05 04:28:23;;;;;;;;;;;20.50;51.20;;;;;;1568496;74;1447;-71
2024/04/05 04:30:25;;;;;;;;;;;20.60;51.10;;;;;;1569479;74;1750;-73
2024/04/05 04:32:27;;;;;;;;;;;20.60;51.20;;;;;;1572715;74;1547;-72
2024/04/05 04:34:29;;;;;;;;;;;20.60;51.20;;;;;;1570544;74;1557;-69
2024/04/05 04:36:30;;;;;;;;;;;20.60;51.20;;;;;;1570841;74;1381;-72
2024/04/05 04:38:32;;;;;;;;;;;20.50;51.30;;;;;;1570620;74;1657;-72
2024/04/05 04:40:34;;;;;;;;;;;20.60;51.30;;;;;;1570003;74;1380;-72
2024/04/05 04:42:36;;;;;;;;;;;20.50;51.30;;;;;;1571085;74;1358;-71
2024/04/05 04:44:38;;;;;;;;;;;20.60;51.30;;;;;;1571994;74;1932;-72
2024/04/05 04:46:40;;;;;;;;;;;20.60;51.30;;;;;;1574693;74;1592;-73
2024/04/05 04:48:42;;;;;;;;;;;20.60;51.30;;;;;;1573459;74;1380;-69
2024/04/05 04:50:44;;;;;;;;;;;20.70;51.50;;;;;;1573396;74;642;-72
2024/04/05 04:52:46;;;;;;;;;;;20.60;51.40;;;;;;1572615;74;1644;-71
2024/04/05 04:54:48;;;;;;;;;;;20.60;51.50;;;;;;1571217;74;1579;-69
2024/04/05 04:56:50;;;;;;;;;;;20.60;51.50;;;;;;1573886;74;1520;-74
2024/04/05 04:58:52;;;;;;;;;;;20.70;51.70;;;;;;1571697;74;642;-66
2024/04/05 05:00:54;;;;;;;;;;;20.60;51.70;;;;;;1569324;74;1436;-69
2024/04/05 05:02:56;;;;;;;;;;;20.50;51.90;;;;;;1571339;75;1744;-71
2024/04/05 05:04:58;;;;;;;;;;;20.60;51.80;;;;;;1571514;74;1946;-69
2024/04/05 05:07:00;;;;;;;;;;;20.60;51.70;;;;;;1569955;74;1509;-72
2024/04/05 05:09:03;;;;;;;;;;;20.70;51.80;;;;;;1570931;74;1534;-71
2024/04/05 05:11:05;;;;;;;;;;;20.60;51.60;;;;;;1573448;74;1573;-71
2024/04/05 05:13:09;;;;;;;;;;;20.60;51.60;;;;;;1575354;74;834;-74
2024/04/05 05:15:11;;;;;;;;;;;20.60;51.40;;;;;;1578075;74;1462;-74
2024/04/05 05:17:13;;;;;;;;;;;20.70;51.60;;;;;;1567332;74;1503;-72
2024/04/05 05:19:15;;;;;;;;;;;20.70;51.60;;;;;;1571617;74;1562;-73
2024/04/05 05:21:17;;;;;;;;;;;20.60;51.50;;;;;;1575482;74;1444;-71
2024/04/05 05:23:19;;;;;;;;;;;20.60;51.50;;;;;;1572410;74;1355;-71
2024/04/05 05:25:21;;;;;;;;;;;20.60;51.60;;;;;;1571574;75;1927;-70
2024/04/05 05:27:23;;;;;;;;;;;20.60;51.50;;;;;;1571760;75;1106;-71
2024/04/05 05:29:25;;;;;;;;;;;20.70;51.70;;;;;;1570550;74;1557;-73
2024/04/05 05:31:26;;;;;;;;;;;20.60;51.60;;;;;;1572584;74;1490;-71
2024/04/05 05:33:28;;;;;;;;;;;20.60;51.50;;;;;;1571618;75;1428;-70
2024/04/05 05:35:30;;;;;;;;;;;20.60;51.50;;;;;;1566914;74;1453;-72
2024/04/05 05:37:32;;;;;;;;;;;20.60;51.50;;;;;;1572247;74;1587;-74
2024/04/05 05:39:34;;;;;;;;;;;20.60;51.50;;;;;;1575404;74;1541;-75
2024/04/05 05:41:36;;;;;;;;;;;20.60;51.50;;;;;;1572005;75;646;-74
2024/04/05 05:43:38;;;;;;;;;;;20.60;51.50;;;;;;1571003;75;1584;-74
2024/04/05 05:45:40;;;;;;;;;;;20.60;51.50;;;;;;1569602;75;1994;-74
2024/04/05 05:47:42;;;;;;;;;;;20.60;51.50;;;;;;1570958;74;1585;-75
2024/04/05 05:49:44;;;;;;;;;;;20.60;51.50;;;;;;1571549;74;1665;-72
2024/04/05 05:51:45;;;;;;;;;;;20.60;51.40;;;;;;1570788;74;1340;-72
2024/04/05 05:53:47;;;;;;;;;;;20.70;51.60;;;;;;1569917;75;1468;-71
2024/04/05 05:55:52;;;;;;;;;;;20.60;51.50;;;;;;1533743;76;661;-73
2024/04/05 05:57:57;;;;;;;;;;;20.60;51.50;;;;;;1571167;75;1674;-72
2024/04/05 05:59:58;;;;;;;;;;;20.70;51.50;;;;;;1557447;75;1700;-71
2024/04/05 06:02:00;;;;;;;;;;;20.60;51.40;;;;;;1575036;75;1566;-71
2024/04/05 06:04:03;;;;;;;;;;;20.60;51.40;;;;;;1573729;74;1360;-73
2024/04/05 06:06:06;;;;;;;;;;;20.60;51.50;;;;;;1571018;75;1946;-71
2024/04/05 06:08:08;;;;;;;;;;;20.60;51.40;;;;;;1569451;74;1480;-70
2024/04/05 06:10:10;;;;;;;;;;;20.60;51.50;;;;;;1575589;74;1591;-73
2024/04/05 06:12:12;;;;;;;;;;;20.60;51.50;;;;;;1573318;74;1538;-74
2024/04/05 06:14:14;;;;;;;;;;;20.60;51.40;;;;;;1569574;74;1433;-71
2024/04/05 06:16:16;;;;;;;;;;;20.60;51.40;;;;;;1571240;74;1567;-75
2024/04/05 06:18:18;;;;;;;;;;;20.60;51.40;;;;;;1572027;74;1429;-74
2024/04/05 06:20:20;;;;;;;;;;;20.60;51.40;;;;;;1572823;74;1465;-73
2024/04/05 06:22:22;;;;;;;;;;;20.60;51.40;;;;;;1570426;75;1344;-73
2024/04/05 06:24:24;;;;;;;;;;;20.60;51.50;;;;;;1571166;74;1930;-73
2024/04/05 06:26:29;;;;;;;;;;;20.60;51.50;;;;;;1570740;74;1551;-75
2024/04/05 06:28:32;;;;;;;;;;;20.60;51.50;;;;;;1569179;75;1398;-73
2024/04/05 06:30:35;;;;;;;;;;;20.70;51.50;;;;;;1570378;74;1482;-75
2024/04/05 06:32:38;;;;;;;;;;;20.60;51.50;;;;;;1572244;74;1611;-77
2024/04/05 06:34:41;;;;;;;;;;;20.60;51.40;;;;;;1572327;74;1204;-74
2024/04/05 06:36:43;;;;;;;;;;;20.60;51.50;;;;;;1569967;74;1499;-72
2024/04/05 06:38:44;;;;;;;;;;;20.60;51.40;;;;;;1571504;74;1478;-73
2024/04/05 06:40:48;;;;;;;;;;;20.70;51.60;;;;;;1571991;74;1461;-72
2024/04/05 06:42:50;;;;;;;;;;;20.60;51.50;;;;;;1571761;74;1357;-74
2024/04/05 06:44:56;;;;;;;;;;;20.50;51.50;;;;;;1571833;75;1931;-72
2024/04/05 06:46:55;;;;;;;;;;;20.70;51.60;;;;;;1574985;74;1239;-73
2024/04/05 06:48:57;;;;;;;;;;;20.70;51.60;;;;;;1574772;74;1544;-72
2024/04/05 06:50:59;;;;;;;;;;;20.60;51.50;;;;;;1574661;74;1303;-71
2024/04/05 06:53:01;;;;;;;;;;;20.60;51.60;;;;;;1571455;74;1454;-73
2024/04/05 06:55:03;;;;;;;;;;;20.60;51.60;;;;;;1569983;74;1617;-69
2024/04/05 06:57:05;;;;;;;;;;;20.60;52.60;;;;;;1573175;74;1493;-74
2024/04/05 06:59:07;;;;;;;;;;;20.70;52.10;;;;;;1570999;75;1571;-71
2024/04/05 07:01:09;;;;;;;;;;;20.60;52.00;;;;;;1570819;74;728;-75
2024/04/05 07:03:12;;;;;;;;;;;20.60;52.00;;;;;;1567545;74;1521;-73
2024/04/05 07:05:14;;;;;;;;;;;20.70;52.20;;;;;;1570371;74;1910;-73
2024/04/05 07:07:16;;;;;;;;;;;20.70;52.30;;;;;;1568183;74;1439;-71
2024/04/05 07:09:20;;;;;;;;;;;20.70;52.30;;;;;;1569924;74;1548;-75
2024/04/05 07:11:22;;;;;;;;;;;20.80;52.30;;;;;;1572586;75;1338;-71
2024/04/05 07:13:24;;;;;;;;;;;20.80;52.10;;;;;;1571287;74;1497;-71
2024/04/05 07:15:26;;;;;;;;;;;20.60;52.00;;;;;;1570557;74;1448;-72
2024/04/05 07:17:28;;;;;;;;;;;20.80;52.10;;;;;;1570238;74;1376;-73
2024/04/05 07:19:30;;;;;;;;;;;20.70;52.10;;;;;;1572438;74;1143;-71
2024/04/05 07:21:31;;;;;;;;;;;20.70;52.00;;;;;;1570655;74;1518;-72
2024/04/05 07:23:34;;;;;;;;;;;20.70;52.00;;;;;;1570339;74;1467;-73
2024/04/05 07:25:36;;;;;;;;;;;20.80;52.00;;;;;;1569505;74;1920;-72
2024/04/05 07:27:38;;;;;;;;;;;20.70;52.00;;;;;;1567717;74;1555;-72
2024/04/05 07:29:43;;;;;;;;;;;20.70;52.00;;;;;;1576274;74;1559;-74
2024/04/05 07:31:46;;;;;;;;;;;20.80;51.90;;;;;;1569503;73;1676;-75
2024/04/05 07:33:47;;;;;;;;;;;20.80;51.90;;;;;;1568748;74;578;-72
2024/04/05 07:35:52;;;;;;;;;;;20.80;51.80;;;;;;1574328;74;1846;-70
2024/04/05 07:37:53;;;;;;;;;;;20.80;51.80;;;;;;1576749;74;1663;-71
2024/04/05 07:39:55;;;;;;;;;;;20.70;51.80;;;;;;1571041;74;1446;-70
2024/04/05 07:41:57;;;;;;;;;;;20.80;51.80;;;;;;1566587;74;1569;-71
2024/04/05 07:43:59;;;;;;;;;;;20.80;51.80;;;;;;1571582;74;1460;-73
2024/04/05 07:46:01;;;;;;;;;;;20.80;51.80;;;;;;1572149;74;1912;-74
2024/04/05 07:48:03;;;;;;;;;;;20.70;51.80;;;;;;1573460;74;1146;-72
2024/04/05 07:50:06;;;;;;;;;;;20.80;51.80;;;;;;1573963;73;1606;-70
2024/04/05 07:52:09;;;;;;;;;;;20.70;51.70;;;;;;1570425;74;1434;-72
2024/04/05 07:54:12;;;;;;;;;;;20.80;51.70;;;;;;1579143;74;1530;-71
2024/04/05 07:56:14;;;;;;;;;;;20.80;51.60;;;;;;1572616;74;1419;-71
2024/04/05 07:58:15;;;;;;;;;;;20.80;51.60;;;;;;1570002;74;1371;-71
2024/04/05 08:00:20;;;;;;;;;;;20.80;51.50;;;;;;1572009;74;1536;-74
2024/04/05 08:02:27;;;;;;;;;;;20.80;51.50;;;;;;1572098;74;1616;-72
2024/04/05 08:04:24;;;;;;;;;;;20.80;51.60;;;;;;1571352;73;1770;-70
2024/04/05 08:06:26;;;;;;;;;;;20.80;51.50;;;;;;1570103;74;1954;-73
2024/04/05 08:08:28;;;;;;;;;;;20.90;51.60;;;;;;1569386;74;1561;-71
2024/04/05 08:10:33;;;;;;;;;;;20.80;51.50;;;;;;1569724;74;1570;-74
2024/04/05 08:12:35;;;;;;;;;;;20.90;51.60;;;;;;1577617;74;1577;-73
2024/04/05 08:14:37;;;;;;;;;;;20.80;51.40;;;;;;1569890;74;1340;-74
2024/04/05 08:16:39;;;;;;;;;;;20.90;51.50;;;;;;1573333;74;1340;-69
2024/04/05 08:18:41;;;;;;;;;;;20.80;51.40;;;;;;1571441;74;1582;-70
2024/04/05 08:20:43;;;;;;;;;;;20.80;51.40;;;;;;1573694;74;1468;-74
2024/04/05 08:22:45;;;;;;;;;;;20.90;51.50;;;;;;1567612;75;1440;-71
2024/04/05 08:24:47;;;;;;;;;;;20.80;51.30;;;;;;1561788;75;1327;-71
2024/04/05 08:26:49;;;;;;;;;;;20.80;51.30;;;;;;1564819;75;1911;-73
2024/04/05 08:28:52;;;;;;;;;;;20.80;51.30;;;;;;1560654;75;1571;-72
2024/04/05 08:30:54;;;;;;;;;;;20.80;51.20;;;;;;1560166;75;1539;-74
2024/04/05 08:32:56;;;;;;;;;;;20.80;51.30;;;;;;1559695;75;1468;-73
2024/04/05 08:34:58;;;;;;;;;;;20.90;51.40;;;;;;1541031;76;1398;-71
2024/04/05 08:37:00;;;;;;;;;;;20.90;51.40;;;;;;1563066;75;1487;-71
2024/04/05 08:39:03;;;;;;;;;;;20.80;51.20;;;;;;1559786;75;1569;-69
2024/04/05 08:41:13;;;;;;;;;;;20.80;51.20;;;;;;1561390;75;2342;-72
2024/04/05 08:43:11;;;;;;;;;;;20.90;50.90;;;;;;1569485;75;1356;-67
2024/04/05 08:45:13;;;;;;;;;;;20.80;50.80;;;;;;1566711;75;1949;-72
2024/04/05 08:47:16;;;;;;;;;;;20.90;51.10;;;;;;1568263;74;1541;-72
2024/04/05 08:49:22;;;;;;;;;;;20.80;51.00;;;;;;1574175;74;1381;-70
2024/04/05 08:51:22;;;;;;;;;;;20.90;51.20;;;;;;1571753;74;1897;-72
2024/04/05 08:53:24;;;;;;;;;;;20.80;51.00;;;;;;1574241;74;689;-75
2024/04/05 08:55:26;;;;;;;;;;;20.80;51.00;;;;;;1569310;75;1328;-73
2024/04/05 08:57:31;;;;;;;;;;;20.90;51.10;;;;;;1570305;74;1605;-74
2024/04/05 08:59:33;;;;;;;;;;;20.90;51.10;;;;;;1571970;74;1485;-71
2024/04/05 09:01:35;;;;;;;;;;;20.80;51.00;;;;;;1571864;74;1401;-71
2024/04/05 09:03:37;;;;;;;;;;;20.80;51.00;;;;;;1572007;74;1477;-70
2024/04/05 09:05:41;;;;;;;;;;;20.90;51.00;;;;;;1567304;74;1950;-71
2024/04/05 09:07:42;;;;;;;;;;;20.80;51.00;;;;;;1560524;74;1157;-71
2024/04/05 09:09:46;;;;;;;;;;;20.90;51.10;;;;;;1570296;74;1527;-75
2024/04/05 09:11:48;;;;;;;;;;;20.80;50.90;;;;;;1571133;74;707;-71
2024/04/05 09:13:59;;;;;;;;;;;20.90;51.00;;;;;;1566951;74;1525;-72
2024/04/05 09:16:02;;;;;;;;;;;20.80;50.90;;;;;;1569325;74;1472;-71
2024/04/05 09:18:04;;;;;;;;;;;20.90;51.00;;;;;;1571920;74;1131;-71
2024/04/05 09:20:08;;;;;;;;;;;20.90;51.00;;;;;;1569722;74;1526;-72
2024/04/05 09:22:11;;;;;;;;;;;20.90;51.00;;;;;;1566411;74;1690;-71
2024/04/05 09:24:13;;;;;;;;;;;20.90;51.00;;;;;;1567540;73;1797;-76
2024/04/05 09:26:25;;;;;;;;;;;20.90;51.00;;;;;;1598497;73;1932;-69
2024/04/05 09:28:28;;;;;;;;;;;20.90;51.00;;;;;;1570203;74;1521;-71
2024/04/05 09:30:28;;;;;;;;;;;20.90;51.10;;;;;;1571627;74;1638;-72
2024/04/05 09:32:30;;;;;;;;;;;20.90;51.10;;;;;;1572468;74;1459;-70
2024/04/05 09:34:33;;;;;;;;;;;20.90;51.10;;;;;;1567970;74;1718;-71
2024/04/05 09:36:35;;;;;;;;;;;20.90;51.10;;;;;;1570442;74;1390;-71
2024/04/05 09:38:39;;;;;;;;;;;20.90;51.10;;;;;;1571294;74;1549;-70
2024/04/05 09:40:41;;;;;;;;;;;20.90;51.00;;;;;;1573656;74;651;-69
2024/04/05 09:42:42;;;;;;;;;;;20.90;51.00;;;;;;1570852;74;1399;-70
2024/04/05 09:44:45;;;;;;;;;;;20.90;51.00;;;;;;1566277;75;1468;-70
2024/04/05 09:46:48;;;;;;;;;;;20.90;51.00;;;;;;1574136;74;1912;-71
2024/04/05 09:48:50;;;;;;;;;;;20.90;51.00;;;;;;1570524;74;1513;-71
2024/04/05 09:50:52;;;;;;;;;;;20.90;51.00;;;;;;1570501;74;1357;-70
2024/04/05 09:52:54;;;;;;;;;;;20.90;51.00;;;;;;1570886;75;1414;-72
2024/04/05 09:55:02;;;;;;;;;;;20.90;51.00;;;;;;1574036;74;627;-71
2024/04/05 09:57:05;;;;;;;;;;;20.90;51.00;;;;;;1568824;74;1959;-70
2024/04/05 09:59:11;;;;;;;;;;;20.90;51.00;;;;;;1569777;74;1671;-70
2024/04/05 10:01:15;;;;;;;;;;;20.90;51.00;;;;;;1570124;73;1525;-75
2024/04/05 10:03:17;;;;;;;;;;;20.90;51.00;;;;;;1568885;74;1406;-73
2024/04/05 10:05:26;;;;;;;;;;;20.90;50.90;;;;;;1569213;74;1355;-72
2024/04/05 10:07:28;;;;;;;;;;;20.90;50.90;;;;;;1576156;74;1950;-71
2024/04/05 10:09:32;;;;;;;;;;;20.90;50.90;;;;;;1571003;74;1351;-70
2024/04/05 10:11:34;;;;;;;;;;;20.90;51.00;;;;;;1571972;74;1693;-70
2024/04/05 10:13:36;;;;;;;;;;;20.90;51.00;;;;;;1573931;74;1576;-69
2024/04/05 10:15:37;;;;;;;;;;;20.90;51.00;;;;;;1570836;74;1551;-70
2024/04/05 10:17:39;;;;;;;;;;;20.90;51.00;;;;;;1572565;74;1358;-73
2024/04/05 10:19:42;;;;;;;;;;;20.90;50.90;;;;;;1572789;74;1258;-73
2024/04/05 10:21:45;;;;;;;;;;;20.90;51.00;;;;;;1573690;74;1540;-71
2024/04/05 10:23:47;;;;;;;;;;;21.00;50.90;;;;;;1570004;74;1569;-71
2024/04/05 10:25:49;;;;;;;;;;;20.90;51.00;;;;;;1567509;75;1962;-71
2024/04/05 10:27:54;;;;;;;;;;;20.90;50.90;;;;;;1567661;75;1461;-73
2024/04/05 10:30:00;;;;;;;;;;;21.00;50.90;;;;;;1532153;76;1587;-70
2024/04/05 10:32:03;;;;;;;;;;;20.90;51.00;;;;;;1560760;75;645;-74
2024/04/05 10:34:05;;;;;;;;;;;20.90;51.00;;;;;;1557914;75;1521;-70
2024/04/05 10:36:07;;;;;;;;;;;20.90;51.00;;;;;;1532587;76;657;-72
2024/04/05 10:38:09;;;;;;;;;;;20.90;51.00;;;;;;1562488;75;1465;-73
2024/04/05 10:40:12;;;;;;;;;;;20.90;51.00;;;;;;1558659;75;1598;-73
2024/04/05 10:42:15;;;;;;;;;;;21.00;51.00;;;;;;1561305;75;1565;-69
2024/04/05 10:44:20;;;;;;;;;;;20.90;51.00;;;;;;1559443;75;1878;-71
2024/04/05 10:46:22;;;;;;;;;;;20.90;51.00;;;;;;1556321;75;1914;-70
2024/04/05 10:48:24;;;;;;;;;;;20.90;51.00;;;;;;1565996;75;1560;-69
2024/04/05 10:50:26;;;;;;;;;;;21.00;51.00;;;;;;1559005;75;630;-71
2024/04/05 10:52:28;;;;;;;;;;;20.90;51.00;;;;;;1561475;75;1359;-70
2024/04/05 10:54:29;;;;;;;;;;;20.90;51.00;;;;;;1562154;75;2009;-69
2024/04/05 10:56:32;;;;;;;;;;;20.90;51.10;;;;;;1563141;75;525;-69
2024/04/05 10:58:35;;;;;;;;;;;20.90;51.10;;;;;;1556814;75;1593;-73
2024/04/05 11:00:37;;;;;;;;;;;20.90;51.00;;;;;;1565942;75;1495;-71
2024/04/05 11:02:40;;;;;;;;;;;20.90;51.00;;;;;;1562115;75;1312;-70
2024/04/05 11:04:42;;;;;;;;;;;20.90;51.00;;;;;;1558913;75;744;-69
2024/04/05 11:06:44;;;;;;;;;;;20.90;51.00;;;;;;1560687;75;1923;-72
2024/04/05 11:08:47;;;;;;;;;;;21.00;51.00;;;;;;1567866;75;1580;-70
2024/04/05 11:10:49;;;;;;;;;;;20.90;51.10;;;;;;1558201;75;1899;-72
2024/04/05 11:12:51;;;;;;;;;;;20.90;51.00;;;;;;1562788;75;1443;-71
2024/04/05 11:15:05;;;;;;;;;;;20.90;51.00;;;;;;1564025;75;1549;-70
2024/04/05 11:17:07;;;;;;;;;;;20.90;51.00;;;;;;1558776;75;1375;-70
2024/04/05 11:19:09;;;;;;;;;;;20.90;51.00;;;;;;1558942;75;609;-70
2024/04/05 11:21:18;;;;;;;;;;;20.90;51.00;;;;;;1555137;75;1544;-70
2024/04/05 11:23:24;;;;;;;;;;;20.90;51.00;;;;;;1562829;75;1654;-72
2024/04/05 11:25:26;;;;;;;;;;;20.90;51.00;;;;;;1558819;75;1611;-73
2024/04/05 11:27:29;;;;;;;;;;;21.00;51.00;;;;;;1563848;75;1939;-71
2024/04/05 11:29:31;;;;;;;;;;;20.90;51.10;;;;;;1560169;75;1595;-72
2024/04/05 11:31:33;;;;;;;;;;;21.00;51.10;;;;;;1560381;75;1554;-71
2024/04/05 11:33:35;;;;;;;;;;;20.90;51.00;;;;;;1562786;75;1560;-73
2024/04/05 11:35:41;;;;;;;;;;;20.90;51.10;;;;;;1556804;75;1672;-73
2024/04/05 11:37:43;;;;;;;;;;;21.00;51.10;;;;;;1559358;74;1762;-69
2024/04/05 11:39:44;;;;;;;;;;;20.90;51.10;;;;;;1561243;75;1674;-69
2024/04/05 11:41:49;;;;;;;;;;;20.90;51.10;;;;;;1561434;75;1527;-68
2024/04/05 11:43:49;;;;;;;;;;;21.00;51.10;;;;;;1559091;75;1565;-71
2024/04/05 11:45:52;;;;;;;;;;;20.90;50.80;;;;;;1561607;75;1542;-71
2024/04/05 11:47:55;;;;;;;;;;;21.00;50.80;;;;;;1560262;75;1917;-70
2024/04/05 11:49:57;;;;;;;;;;;20.90;50.90;;;;;;1557178;74;1490;-67
2024/04/05 11:51:59;;;;;;;;;;;21.00;50.90;;;;;;1558011;75;1457;-68
2024/04/05 11:54:01;;;;;;;;;;;21.00;50.90;;;;;;1561117;75;1487;-68
2024/04/05 11:56:03;;;;;;;;;;;20.90;51.00;;;;;;1556106;75;1471;-67
2024/04/05 11:58:05;;;;;;;;;;;21.00;51.00;;;;;;1558373;75;1626;-67
2024/04/05 12:00:12;;;;;;;;;;;21.00;51.00;;;;;;1559284;75;1436;-68
2024/04/05 12:02:11;;;;;;;;;;;20.90;50.90;;;;;;1561143;74;1637;-68
2024/04/05 12:04:13;;;;;;;;;;;21.00;51.00;;;;;;1557233;75;1468;-70